首页
METAR-TAF:

METAR-TAF

机场 :

坦皮科, 墨西哥

纬度: 22-17N, 经度: 097-52W, 海拔: 24米

当前天气观测

该预报发布于42分钟前的21:44 UTC
风速12节,风向
温度 20°C
湿度 56%
气压 1026 hPa
能見度: 16.1公里
少量云层高于5000英尺
散云层高于7000英尺

METAR: MMTM 112144Z E01012KT 10SM FEW050 SCT070 20/11 A3030 RMK 8/570 CI

时间: 16:26 (22:26 UTC)

预报

该预报发布于2小时和28分钟前的19:58 UTC
预报有效从11日的 20点(UTC)到 12日的 18点(UTC)
风速12节,风向北转东北
能見度: 10公里
散云层高于5000英尺
阴天层高于7000英尺
成为
从 11日的 21点(UTC)到 11日的 22点(UTC)
风速8节,风向北转东北
从 12日的 0200点(UTC)
风速8节,风向
能見度: 10公里
多云层高于7000英尺
成为
从 12日的 05点(UTC)到 12日的 06点(UTC)
风速6节,风向西北
从 12日的 1000点(UTC)
风速6节,风向西转西北
能見度: 9.7公里
散云层高于1500英尺
多云层高于7000英尺

TAF: MMTM 111958Z 1120/1218 02012KT P6SM SCT050 OVC070 BECMG 1121/1122 02008KT FM120200 01008KT P6SM BKN070 BECMG 1205/1206 32006KT FM121000 29006KT 6SM HZ SCT015 BKN070

超过4000个机场的气象观测和天气预报(METAR&TAF报告)。

可查询的气象台以黄色和红色小点在地图上表示。

将鼠标移到小点上方,可查看气象台名称。

然后点击查看天气观测和预报。

如需切换地图:点击带黑十字的绿色按钮放大地图;点击带横线的绿色按钮缩小地图;或者点击绿色箭头查看邻近地区的地图。


METAR-TAF: